Time;durP1;ratioP1;P1;durP2;ratioP2;P2;SDS_P1;SDS_P2;PMS_P1;PMS_P2;Temp;Humidity;BMP_temperature;BMP_pressure;BME280_temperature;BME280_humidity;BME280_pressure;Samples;Min_cycle;Max_cycle;Signal;HPM_P1;HPM_P2
2022/04/09 00:00:11;;;;;;;3.53;1.00;;;;;;;;;;5064083;28;20445;-86
2022/04/09 00:02:38;;;;;;;1.53;0.90;;;;;;;;;;5047227;28;20420;-86
2022/04/09 00:05:05;;;;;;;2.67;1.10;;;;;;;;;;5064849;28;20459;-85
2022/04/09 00:07:31;;;;;;;1.90;0.90;;;;;;;;;;5062919;28;20414;-85
2022/04/09 00:09:57;;;;;;;2.23;1.20;;;;;;;;;;5040933;28;20965;-86
2022/04/09 00:12:23;;;;;;;1.63;1.00;;;;;;;;;;5058516;28;20890;-85
2022/04/09 00:14:49;;;;;;;3.20;1.10;;;;;;;;;;5061010;28;20458;-84
2022/04/09 00:17:15;;;;;;;3.10;1.57;;;;;;;;;;5043529;28;20425;-85
2022/04/09 00:19:41;;;;;;;1.93;1.07;;;;;;;;;;5061793;28;20406;-86
2022/04/09 00:22:07;;;;;;;3.40;1.23;;;;;;;;;;5062734;28;20484;-85
2022/04/09 00:24:33;;;;;;;2.00;1.20;;;;;;;;;;5063469;28;20412;-85
2022/04/09 00:27:00;;;;;;;5.13;1.17;;;;;;;;;;5045322;28;20429;-85
2022/04/09 00:29:26;;;;;;;2.90;1.00;;;;;;;;;;5062232;28;20475;-87
2022/04/09 00:31:52;;;;;;;1.80;1.00;;;;;;;;;;5061318;28;20417;-86
2022/04/09 00:34:18;;;;;;;2.17;1.07;;;;;;;;;;5063211;28;20798;-85
2022/04/09 00:36:44;;;;;;;6.13;1.13;;;;;;;;;;5063503;28;20434;-86
2022/04/09 00:39:10;;;;;;;3.50;1.10;;;;;;;;;;5063448;28;20392;-86
2022/04/09 00:41:40;;;;;;;2.27;1.20;;;;;;;;;;5063107;28;20481;-86
2022/04/09 00:44:16;;;;;;;5.00;1.50;;;;;;;;;;5063450;28;20402;-86
2022/04/09 00:46:42;;;;;;;2.60;1.17;;;;;;;;;;5062763;28;20417;-86
2022/04/09 00:49:08;;;;;;;3.10;1.20;;;;;;;;;;5063225;28;20406;-86
2022/04/09 00:51:35;;;;;;;6.03;1.70;;;;;;;;;;5043980;28;20414;-86
2022/04/09 00:54:01;;;;;;;1.70;1.10;;;;;;;;;;5045064;28;20433;-85
2022/04/09 00:56:28;;;;;;;2.37;1.43;;;;;;;;;;5063335;28;20438;-86
2022/04/09 00:58:55;;;;;;;2.37;1.30;;;;;;;;;;5045252;28;20405;-86
2022/04/09 01:01:22;;;;;;;1.93;1.20;;;;;;;;;;5064205;28;20445;-86
2022/04/09 01:03:50;;;;;;;2.73;1.30;;;;;;;;;;5063783;28;20398;-86
2022/04/09 01:06:16;;;;;;;2.43;1.10;;;;;;;;;;5046236;28;20413;-85
2022/04/09 01:08:42;;;;;;;3.77;0.90;;;;;;;;;;5070630;28;20421;-85
2022/04/09 01:11:08;;;;;;;2.13;1.20;;;;;;;;;;5074674;28;20437;-85
2022/04/09 01:13:36;;;;;;;3.20;1.47;;;;;;;;;;5077328;28;20409;-84
2022/04/09 01:16:03;;;;;;;13.73;1.70;;;;;;;;;;5059812;28;20435;-84
2022/04/09 01:18:31;;;;;;;8.20;1.20;;;;;;;;;;5061029;28;20433;-87
2022/04/09 01:20:58;;;;;;;3.97;1.40;;;;;;;;;;5060571;28;20449;-87
2022/04/09 01:23:25;;;;;;;12.67;1.67;;;;;;;;;;5066832;28;20401;-87
2022/04/09 01:25:51;;;;;;;2.17;1.10;;;;;;;;;;5058386;28;20435;-87
2022/04/09 01:28:17;;;;;;;1.60;1.07;;;;;;;;;;5068137;28;20429;-87
2022/04/09 01:30:43;;;;;;;1.50;1.07;;;;;;;;;;5043873;28;20431;-86
2022/04/09 01:33:14;;;;;;;3.00;0.97;;;;;;;;;;5037421;28;20478;-87
2022/04/09 01:35:40;;;;;;;2.50;1.00;;;;;;;;;;5039531;28;20406;-85
2022/04/09 01:38:06;;;;;;;2.10;1.07;;;;;;;;;;5037922;28;20450;-86
2022/04/09 01:40:32;;;;;;;1.30;0.80;;;;;;;;;;5037428;28;20504;-86
2022/04/09 01:42:58;;;;;;;1.20;0.80;;;;;;;;;;5037125;28;20406;-85
2022/04/09 01:45:25;;;;;;;1.63;1.13;;;;;;;;;;5036901;28;20395;-86
2022/04/09 01:47:51;;;;;;;2.07;0.87;;;;;;;;;;5040202;28;20422;-88
2022/04/09 01:50:17;;;;;;;1.30;0.90;;;;;;;;;;5039475;28;20414;-87
2022/04/09 01:52:43;;;;;;;2.57;1.00;;;;;;;;;;5040632;28;20415;-87
2022/04/09 01:55:09;;;;;;;1.60;1.00;;;;;;;;;;5040816;28;20398;-86
2022/04/09 01:57:35;;;;;;;4.90;0.97;;;;;;;;;;5040899;28;20522;-86
2022/04/09 02:00:02;;;;;;;1.40;1.10;;;;;;;;;;5042206;28;20480;-86
2022/04/09 02:02:28;;;;;;;1.80;1.10;;;;;;;;;;5041556;28;20482;-88
2022/04/09 02:04:54;;;;;;;2.03;1.20;;;;;;;;;;5040190;28;20398;-88
2022/04/09 02:07:20;;;;;;;2.33;1.30;;;;;;;;;;5040378;28;20762;-88
2022/04/09 02:09:46;;;;;;;2.03;1.10;;;;;;;;;;5038714;28;20917;-87
2022/04/09 02:12:12;;;;;;;3.43;1.43;;;;;;;;;;5039195;28;20406;-88
2022/04/09 02:14:38;;;;;;;1.43;1.17;;;;;;;;;;5039404;28;20434;-88
2022/04/09 02:17:04;;;;;;;1.70;1.30;;;;;;;;;;5039298;28;20426;-88
2022/04/09 02:19:30;;;;;;;2.43;1.00;;;;;;;;;;5038887;28;20421;-88
2022/04/09 02:21:56;;;;;;;1.60;1.10;;;;;;;;;;5038534;28;20478;-88
2022/04/09 02:24:22;;;;;;;1.43;1.20;;;;;;;;;;5038011;28;20464;-87
2022/04/09 02:26:48;;;;;;;1.60;1.17;;;;;;;;;;5040150;28;20438;-86
2022/04/09 02:29:14;;;;;;;1.80;1.57;;;;;;;;;;5040725;28;20413;-88
2022/04/09 02:31:40;;;;;;;1.70;1.57;;;;;;;;;;5037734;28;20410;-88
2022/04/09 02:34:07;;;;;;;2.47;1.60;;;;;;;;;;5039196;28;20474;-88
2022/04/09 02:36:34;;;;;;;2.10;1.90;;;;;;;;;;5037997;28;20438;-88
2022/04/09 02:39:00;;;;;;;2.20;2.00;;;;;;;;;;5039687;28;20763;-88
2022/04/09 02:41:28;;;;;;;3.20;2.13;;;;;;;;;;5039165;28;20831;-88
2022/04/09 02:43:54;;;;;;;2.40;2.20;;;;;;;;;;5039581;28;20432;-88
2022/04/09 02:46:21;;;;;;;3.70;3.00;;;;;;;;;;5039450;28;20477;-87
2022/04/09 02:48:47;;;;;;;2.87;2.50;;;;;;;;;;5037525;28;20416;-87
2022/04/09 02:51:13;;;;;;;3.70;3.17;;;;;;;;;;5039382;28;20441;-87
2022/04/09 02:53:39;;;;;;;3.87;3.50;;;;;;;;;;5041680;28;20406;-88
2022/04/09 02:56:05;;;;;;;3.17;2.87;;;;;;;;;;5043620;28;20457;-87
2022/04/09 02:58:32;;;;;;;4.03;3.60;;;;;;;;;;5040866;28;20961;-88
2022/04/09 03:00:58;;;;;;;3.33;2.97;;;;;;;;;;5042248;28;20453;-88
2022/04/09 03:03:24;;;;;;;3.87;3.47;;;;;;;;;;5043104;28;20409;-88
2022/04/09 03:05:50;;;;;;;4.67;4.27;;;;;;;;;;5042550;28;20477;-87
2022/04/09 03:08:16;;;;;;;4.77;3.87;;;;;;;;;;5041194;28;20453;-88
2022/04/09 03:10:42;;;;;;;3.70;3.20;;;;;;;;;;5042849;28;20425;-87
2022/04/09 03:13:08;;;;;;;3.87;3.30;;;;;;;;;;5041442;28;20417;-87
2022/04/09 03:15:34;;;;;;;4.00;3.53;;;;;;;;;;5042927;28;20430;-87
2022/04/09 03:18:00;;;;;;;4.03;3.63;;;;;;;;;;5041991;28;20849;-86
2022/04/09 03:20:26;;;;;;;5.40;4.17;;;;;;;;;;5042472;28;20973;-87
2022/04/09 03:22:52;;;;;;;5.00;3.43;;;;;;;;;;5042462;28;20767;-87
2022/04/09 03:25:18;;;;;;;4.10;3.50;;;;;;;;;;5043388;28;20410;-87
2022/04/09 03:27:44;;;;;;;5.10;3.77;;;;;;;;;;5042659;28;20418;-86
2022/04/09 03:30:11;;;;;;;4.87;4.10;;;;;;;;;;5040053;28;20402;-86
2022/04/09 03:32:37;;;;;;;5.80;4.57;;;;;;;;;;5037220;28;20914;-85
2022/04/09 03:35:04;;;;;;;5.40;4.20;;;;;;;;;;5037763;28;20429;-86
2022/04/09 03:37:30;;;;;;;5.63;4.33;;;;;;;;;;5039472;28;20465;-85
2022/04/09 03:39:56;;;;;;;5.20;4.53;;;;;;;;;;5039375;28;20914;-87
2022/04/09 03:42:22;;;;;;;6.20;5.13;;;;;;;;;;5039747;28;20493;-87
2022/04/09 03:44:48;;;;;;;5.70;4.73;;;;;;;;;;5041421;28;20407;-87
2022/04/09 03:47:14;;;;;;;5.47;4.90;;;;;;;;;;5041432;28;20435;-86
2022/04/09 03:49:40;;;;;;;5.60;3.73;;;;;;;;;;5041984;28;20398;-87
2022/04/09 03:52:06;;;;;;;5.60;5.00;;;;;;;;;;5041203;28;20513;-87
2022/04/09 03:54:35;;;;;;;6.37;4.30;;;;;;;;;;5042649;28;20434;-85
2022/04/09 03:57:03;;;;;;;4.77;4.23;;;;;;;;;;5073445;28;20496;-86
2022/04/09 03:59:29;;;;;;;7.20;4.87;;;;;;;;;;5067565;28;20401;-87
2022/04/09 04:01:55;;;;;;;5.80;5.27;;;;;;;;;;5062438;28;20937;-86
2022/04/09 04:04:21;;;;;;;5.03;4.53;;;;;;;;;;5044242;28;20437;-85
2022/04/09 04:06:48;;;;;;;5.30;4.23;;;;;;;;;;5062884;28;20809;-87
2022/04/09 04:09:16;;;;;;;6.10;4.93;;;;;;;;;;5069366;28;20408;-86
2022/04/09 04:11:43;;;;;;;5.03;4.53;;;;;;;;;;5071816;28;20404;-86
2022/04/09 04:14:09;;;;;;;5.77;4.70;;;;;;;;;;5062985;28;20412;-86
2022/04/09 04:16:35;;;;;;;5.87;4.60;;;;;;;;;;5044160;28;20416;-87
2022/04/09 04:19:01;;;;;;;5.10;4.63;;;;;;;;;;5061880;28;20879;-86
2022/04/09 04:21:28;;;;;;;5.10;4.57;;;;;;;;;;5059971;28;20488;-85
2022/04/09 04:23:54;;;;;;;5.77;4.67;;;;;;;;;;5059668;28;20924;-86
2022/04/09 04:26:20;;;;;;;4.97;3.90;;;;;;;;;;5042455;28;20456;-86
2022/04/09 04:28:48;;;;;;;4.30;3.90;;;;;;;;;;5060794;28;20405;-85
2022/04/09 04:31:16;;;;;;;4.10;3.70;;;;;;;;;;5042401;28;20412;-86
2022/04/09 04:33:42;;;;;;;4.40;3.63;;;;;;;;;;5060737;28;20555;-87
2022/04/09 04:36:08;;;;;;;4.43;3.93;;;;;;;;;;5060400;28;20406;-87
2022/04/09 04:38:34;;;;;;;4.17;3.77;;;;;;;;;;5060448;28;20444;-87
2022/04/09 04:41:02;;;;;;;4.63;3.67;;;;;;;;;;5065795;28;20506;-87
2022/04/09 04:43:28;;;;;;;4.20;3.80;;;;;;;;;;5066531;28;20505;-87
2022/04/09 04:45:54;;;;;;;4.83;3.70;;;;;;;;;;5047693;28;20409;-87
2022/04/09 04:48:20;;;;;;;4.33;3.47;;;;;;;;;;5061634;28;20432;-87
2022/04/09 04:50:47;;;;;;;4.70;3.70;;;;;;;;;;5061338;28;20803;-87
2022/04/09 04:53:13;;;;;;;4.97;4.47;;;;;;;;;;5061143;28;20401;-87
2022/04/09 04:55:39;;;;;;;6.33;4.23;;;;;;;;;;5061622;28;20413;-87
2022/04/09 04:58:05;;;;;;;6.10;4.80;;;;;;;;;;5043510;28;20426;-87
2022/04/09 05:00:32;;;;;;;8.33;5.40;;;;;;;;;;5042723;28;20461;-86
2022/04/09 05:02:58;;;;;;;5.93;4.23;;;;;;;;;;5061035;28;20438;-86
2022/04/09 05:05:24;;;;;;;10.33;5.73;;;;;;;;;;5061196;28;20795;-86
2022/04/09 05:07:51;;;;;;;6.13;4.20;;;;;;;;;;5060558;28;20422;-87
2022/04/09 05:10:18;;;;;;;4.90;4.17;;;;;;;;;;5061409;28;20777;-86
2022/04/09 05:12:45;;;;;;;6.17;4.70;;;;;;;;;;5061456;28;20466;-86
2022/04/09 05:15:12;;;;;;;5.20;4.00;;;;;;;;;;5060514;28;20431;-87
2022/04/09 05:17:38;;;;;;;5.03;4.53;;;;;;;;;;5060675;28;20426;-86
2022/04/09 05:20:05;;;;;;;5.17;4.33;;;;;;;;;;5061014;28;20414;-86
2022/04/09 05:22:32;;;;;;;9.33;4.57;;;;;;;;;;5060530;28;20904;-87
2022/04/09 05:24:58;;;;;;;4.93;4.43;;;;;;;;;;5060502;28;20777;-86
2022/04/09 05:27:24;;;;;;;6.67;4.87;;;;;;;;;;5060570;28;20469;-86
2022/04/09 05:29:50;;;;;;;5.67;4.50;;;;;;;;;;5060494;28;20401;-86
2022/04/09 05:32:17;;;;;;;6.00;4.57;;;;;;;;;;5061064;28;20790;-86
2022/04/09 05:34:43;;;;;;;6.13;4.87;;;;;;;;;;5061133;28;20506;-86
2022/04/09 05:37:11;;;;;;;5.73;4.90;;;;;;;;;;5066672;22;20465;-84
2022/04/09 05:39:37;;;;;;;8.20;5.40;;;;;;;;;;5054576;28;20429;-82
2022/04/09 05:42:03;;;;;;;6.00;5.10;;;;;;;;;;5040927;28;20533;-82
2022/04/09 05:44:29;;;;;;;7.63;5.83;;;;;;;;;;5039305;28;20410;-82
2022/04/09 05:46:55;;;;;;;9.37;6.10;;;;;;;;;;5037906;28;20471;-82
2022/04/09 05:49:21;;;;;;;7.70;6.00;;;;;;;;;;5038661;28;20402;-82
2022/04/09 05:51:48;;;;;;;8.70;5.37;;;;;;;;;;5038893;28;20407;-82
2022/04/09 05:54:14;;;;;;;7.10;5.83;;;;;;;;;;5039941;28;20410;-82
2022/04/09 05:56:40;;;;;;;8.50;6.50;;;;;;;;;;5037185;28;20494;-82
2022/04/09 05:59:06;;;;;;;7.83;6.47;;;;;;;;;;5022366;28;20434;-82
2022/04/09 06:01:32;;;;;;;7.17;6.03;;;;;;;;;;5019318;28;20457;-82
2022/04/09 06:03:58;;;;;;;8.07;6.33;;;;;;;;;;5037322;28;20486;-82
2022/04/09 06:06:26;;;;;;;9.63;6.30;;;;;;;;;;5020679;28;20797;-82
2022/04/09 06:08:52;;;;;;;7.63;6.33;;;;;;;;;;5020140;28;20440;-82
2022/04/09 06:11:18;;;;;;;11.67;7.10;;;;;;;;;;5039235;28;20414;-82
2022/04/09 06:13:44;;;;;;;9.63;6.43;;;;;;;;;;5038023;28;20399;-82
2022/04/09 06:16:11;;;;;;;10.20;7.20;;;;;;;;;;5038797;28;20398;-82
2022/04/09 06:18:38;;;;;;;9.20;7.47;;;;;;;;;;5020665;28;20434;-82
2022/04/09 06:21:06;;;;;;;6.90;6.03;;;;;;;;;;5038993;28;20446;-82
2022/04/09 06:23:32;;;;;;;8.60;6.77;;;;;;;;;;5039664;28;20415;-83
2022/04/09 06:25:59;;;;;;;8.20;6.27;;;;;;;;;;5039619;28;20403;-82
2022/04/09 06:28:25;;;;;;;8.57;6.73;;;;;;;;;;5038535;28;20421;-82
2022/04/09 06:30:52;;;;;;;7.50;5.70;;;;;;;;;;5039427;28;20445;-81
2022/04/09 06:33:18;;;;;;;7.47;6.70;;;;;;;;;;5021635;28;20430;-82
2022/04/09 06:35:44;;;;;;;6.53;5.73;;;;;;;;;;5026700;28;20501;-81
2022/04/09 06:38:10;;;;;;;8.30;5.90;;;;;;;;;;5047537;28;20816;-80
2022/04/09 06:40:36;;;;;;;7.80;6.20;;;;;;;;;;5047627;28;20861;-81
2022/04/09 06:43:02;;;;;;;8.90;6.30;;;;;;;;;;5044052;28;20399;-82
2022/04/09 06:45:28;;;;;;;7.97;6.33;;;;;;;;;;5039743;28;20426;-82
2022/04/09 06:47:54;;;;;;;9.10;7.13;;;;;;;;;;5041462;28;20430;-82
2022/04/09 06:50:20;;;;;;;6.47;5.50;;;;;;;;;;5045021;28;20417;-82
2022/04/09 06:52:47;;;;;;;6.73;5.43;;;;;;;;;;5040334;28;20406;-83
2022/04/09 06:55:13;;;;;;;7.60;5.87;;;;;;;;;;5021841;28;20414;-82
2022/04/09 06:57:41;;;;;;;5.90;5.30;;;;;;;;;;5039442;28;20431;-82
2022/04/09 07:00:08;;;;;;;8.80;6.70;;;;;;;;;;5039198;28;20411;-82
2022/04/09 07:02:34;;;;;;;5.93;5.33;;;;;;;;;;5039845;28;20899;-82
2022/04/09 07:05:00;;;;;;;6.43;5.57;;;;;;;;;;5021338;28;20571;-82
2022/04/09 07:07:27;;;;;;;6.50;5.90;;;;;;;;;;5045158;28;20422;-82
2022/04/09 07:09:56;;;;;;;9.80;6.67;;;;;;;;;;5038761;28;20411;-82
2022/04/09 07:12:22;;;;;;;6.37;5.57;;;;;;;;;;5039096;28;20406;-83
2022/04/09 07:14:49;;;;;;;7.33;6.33;;;;;;;;;;5039132;28;20797;-82
2022/04/09 07:17:21;;;;;;;8.00;5.80;;;;;;;;;;5020928;28;20457;-82
2022/04/09 07:19:48;;;;;;;7.13;5.50;;;;;;;;;;5038836;28;20862;-82
2022/04/09 07:22:14;;;;;;;6.20;5.27;;;;;;;;;;5020952;28;20464;-82
2022/04/09 07:24:40;;;;;;;8.53;6.73;;;;;;;;;;5041369;28;20407;-81
2022/04/09 07:27:06;;;;;;;8.80;6.60;;;;;;;;;;5039059;28;20418;-82
2022/04/09 07:29:33;;;;;;;7.00;6.00;;;;;;;;;;5038404;28;20804;-81
2022/04/09 07:31:59;;;;;;;6.83;6.13;;;;;;;;;;5038604;28;20407;-81
2022/04/09 07:34:25;;;;;;;8.53;5.87;;;;;;;;;;5021582;28;20418;-81
2022/04/09 07:36:51;;;;;;;10.93;6.50;;;;;;;;;;5039088;28;20414;-81
2022/04/09 07:39:17;;;;;;;8.37;6.40;;;;;;;;;;5040195;28;20446;-82
2022/04/09 07:41:43;;;;;;;10.33;5.97;;;;;;;;;;5024581;28;21132;-83
2022/04/09 07:44:09;;;;;;;8.37;5.90;;;;;;;;;;5042994;28;20402;-81
2022/04/09 07:46:35;;;;;;;8.30;6.00;;;;;;;;;;5042424;28;20402;-82
2022/04/09 07:49:01;;;;;;;10.07;7.17;;;;;;;;;;5043425;28;20428;-82
2022/04/09 07:51:27;;;;;;;8.13;6.53;;;;;;;;;;5043051;28;20453;-81
2022/04/09 07:53:53;;;;;;;12.40;6.63;;;;;;;;;;5042499;28;20407;-83
2022/04/09 07:56:19;;;;;;;10.50;7.70;;;;;;;;;;5024457;28;20407;-82
2022/04/09 07:58:45;;;;;;;11.70;7.83;;;;;;;;;;5042899;28;20461;-82
2022/04/09 08:01:11;;;;;;;10.93;7.20;;;;;;;;;;5042267;28;20450;-83
2022/04/09 08:03:37;;;;;;;11.93;8.00;;;;;;;;;;5043433;28;20410;-82
2022/04/09 08:06:05;;;;;;;8.17;7.07;;;;;;;;;;5043133;28;20398;-82
2022/04/09 08:08:31;;;;;;;11.40;8.80;;;;;;;;;;5042457;28;20446;-81
2022/04/09 08:10:57;;;;;;;10.10;7.93;;;;;;;;;;5042462;28;20421;-82
2022/04/09 08:13:23;;;;;;;9.03;8.10;;;;;;;;;;5042760;28;20418;-82
2022/04/09 08:15:50;;;;;;;11.13;7.93;;;;;;;;;;5043354;28;20410;-82
2022/04/09 08:18:16;;;;;;;9.60;7.97;;;;;;;;;;5047532;28;20476;-82
2022/04/09 08:20:42;;;;;;;10.23;7.80;;;;;;;;;;5051840;28;20453;-82
2022/04/09 08:23:08;;;;;;;11.27;8.17;;;;;;;;;;5026098;28;20406;-83
2022/04/09 08:25:34;;;;;;;8.50;7.60;;;;;;;;;;5047389;28;20402;-82
2022/04/09 08:28:00;;;;;;;8.00;6.67;;;;;;;;;;5046499;28;20421;-82
2022/04/09 08:30:26;;;;;;;7.50;6.73;;;;;;;;;;5043783;28;20426;-82
2022/04/09 08:32:53;;;;;;;8.70;6.83;;;;;;;;;;5043315;28;20768;-82
2022/04/09 08:35:20;;;;;;;11.63;7.83;;;;;;;;;;5043413;28;20402;-82
2022/04/09 08:37:57;;;;;;;7.90;6.97;;;;;;;;;;5042823;28;20460;-82
2022/04/09 08:40:24;;;;;;;9.97;8.77;;;;;;;;;;5042306;28;20456;-82
2022/04/09 08:42:50;;;;;;;11.27;8.77;;;;;;;;;;5051037;28;20405;-84
2022/04/09 08:45:17;;;;;;;12.67;7.30;;;;;;;;;;5059751;28;20414;-81
2022/04/09 08:47:44;;;;;;;7.40;6.20;;;;;;;;;;5056260;28;20795;-81
2022/04/09 08:50:15;;;;;;;9.23;7.07;;;;;;;;;;5042142;28;20429;-82
2022/04/09 08:52:42;;;;;;;9.37;7.50;;;;;;;;;;5043591;28;20409;-82
2022/04/09 08:55:12;;;;;;;9.93;6.53;;;;;;;;;;5024345;28;20441;-82
2022/04/09 08:57:38;;;;;;;9.00;7.17;;;;;;;;;;5025240;28;21016;-81
2022/04/09 09:00:10;;;;;;;10.37;7.43;;;;;;;;;;5041163;28;20774;-82
2022/04/09 09:02:36;;;;;;;6.10;5.50;;;;;;;;;;5041269;28;20462;-82
2022/04/09 09:05:03;;;;;;;7.37;5.13;;;;;;;;;;5041165;28;20401;-81
2022/04/09 09:07:29;;;;;;;7.97;4.73;;;;;;;;;;5038111;28;20439;-82
2022/04/09 09:10:15;;;;;;;6.40;4.43;;;;;;;;;;5038651;28;20399;-82
2022/04/09 09:12:41;;;;;;;6.10;5.03;;;;;;;;;;5039073;28;20386;-81
2022/04/09 09:15:07;;;;;;;8.33;5.27;;;;;;;;;;5021311;28;20783;-82
2022/04/09 09:17:33;;;;;;;7.53;4.13;;;;;;;;;;5039606;28;20427;-82
2022/04/09 09:20:00;;;;;;;5.50;4.43;;;;;;;;;;5039087;28;20867;-82
2022/04/09 09:22:36;;;;;;;12.13;4.43;;;;;;;;;;5022077;28;20553;-82
2022/04/09 09:25:04;;;;;;;5.83;3.80;;;;;;;;;;5021930;28;20424;-82
2022/04/09 09:27:30;;;;;;;6.87;3.87;;;;;;;;;;5021990;28;20434;-82
2022/04/09 09:29:56;;;;;;;4.03;3.20;;;;;;;;;;5045164;28;20494;-82
2022/04/09 09:32:26;;;;;;;8.13;3.60;;;;;;;;;;5042305;28;20403;-82
2022/04/09 09:34:56;;;;;;;8.70;3.50;;;;;;;;;;5040683;28;20899;-83
2022/04/09 09:37:24;;;;;;;4.97;3.73;;;;;;;;;;5040320;28;20450;-83
2022/04/09 09:39:50;;;;;;;4.43;3.53;;;;;;;;;;5022514;28;20411;-83
2022/04/09 09:42:20;;;;;;;4.90;3.13;;;;;;;;;;5040208;28;20450;-83
2022/04/09 09:44:46;;;;;;;5.53;3.30;;;;;;;;;;5021923;28;20490;-82
2022/04/09 09:47:12;;;;;;;6.03;3.70;;;;;;;;;;5040350;28;20403;-82
2022/04/09 09:49:41;;;;;;;4.60;3.77;;;;;;;;;;5039430;28;20410;-82
2022/04/09 09:52:08;;;;;;;4.20;3.60;;;;;;;;;;5039582;28;20465;-82
2022/04/09 09:54:35;;;;;;;6.83;3.10;;;;;;;;;;5039750;28;20402;-83
2022/04/09 09:57:01;;;;;;;5.73;3.73;;;;;;;;;;5038609;28;20414;-82
2022/04/09 09:59:28;;;;;;;4.93;3.63;;;;;;;;;;5039962;28;20413;-82
2022/04/09 10:01:55;;;;;;;4.70;3.83;;;;;;;;;;5039023;28;20476;-82
2022/04/09 10:04:21;;;;;;;5.30;3.53;;;;;;;;;;5039152;28;20478;-82
2022/04/09 10:06:48;;;;;;;5.47;3.40;;;;;;;;;;5039907;28;20398;-82
2022/04/09 10:09:14;;;;;;;6.97;3.70;;;;;;;;;;5038776;28;20457;-82
2022/04/09 10:11:49;;;;;;;4.00;3.23;;;;;;;;;;5038472;28;20402;-84
2022/04/09 10:14:17;;;;;;;7.93;3.80;;;;;;;;;;5041124;28;20421;-81
2022/04/09 10:16:44;;;;;;;9.67;3.40;;;;;;;;;;5061446;28;20424;-82
2022/04/09 10:19:11;;;;;;;3.40;2.90;;;;;;;;;;5059624;28;20473;-82
2022/04/09 10:21:40;;;;;;;4.80;2.97;;;;;;;;;;5059915;28;20929;-82
2022/04/09 10:24:06;;;;;;;4.60;2.87;;;;;;;;;;5042284;28;20428;-85
2022/04/09 10:26:33;;;;;;;4.45;2.50;;;;;;;;;;5059023;28;20845;-82
2022/04/09 10:29:09;;;;;;;5.37;2.67;;;;;;;;;;5060483;28;20256;-83
2022/04/09 10:31:35;;;;;;;3.50;2.60;;;;;;;;;;5061129;28;20398;-83
2022/04/09 10:34:02;;;;;;;3.83;2.90;;;;;;;;;;5060184;28;20401;-81
2022/04/09 10:36:40;;;;;;;3.77;3.20;;;;;;;;;;5060256;28;20401;-84
2022/04/09 10:39:40;;;;;;;3.33;3.03;;;;;;;;;;5061500;28;20851;-84
2022/04/09 10:42:06;;;;;;;9.03;3.10;;;;;;;;;;5059618;28;20801;-83
2022/04/09 10:44:45;;;;;;;4.70;3.40;;;;;;;;;;5059721;28;20463;-84
2022/04/09 10:47:14;;;;;;;4.90;2.60;;;;;;;;;;5056592;28;20779;-82
2022/04/09 10:49:40;;;;;;;3.73;3.10;;;;;;;;;;5040581;28;20455;-83
2022/04/09 10:52:19;;;;;;;3.60;3.10;;;;;;;;;;5058775;28;20508;-82
2022/04/09 10:55:20;;;;;;;4.30;3.50;;;;;;;;;;5059354;28;20444;-82
2022/04/09 10:57:48;;;;;;;4.50;2.90;;;;;;;;;;4996640;28;20481;-83
2022/04/09 11:00:23;;;;;;;4.17;2.70;;;;;;;;;;5049141;28;20785;-82
2022/04/09 11:03:05;;;;;;;4.80;2.67;;;;;;;;;;5057191;28;20422;-82
2022/04/09 11:05:33;;;;;;;6.80;3.17;;;;;;;;;;5057999;28;20426;-82
2022/04/09 11:08:09;;;;;;;4.10;2.70;;;;;;;;;;5059346;28;20564;-83
2022/04/09 11:10:35;;;;;;;3.53;2.80;;;;;;;;;;5061011;28;20440;-83
2022/04/09 11:13:02;;;;;;;4.17;2.43;;;;;;;;;;5060814;28;20421;-82
2022/04/09 11:15:28;;;;;;;5.73;2.50;;;;;;;;;;5063219;28;20898;-83
2022/04/09 11:18:02;;;;;;;7.00;2.50;;;;;;;;;;5062486;28;20445;-83
2022/04/09 11:20:32;;;;;;;3.33;2.60;;;;;;;;;;5063012;28;20440;-82
2022/04/09 11:23:06;;;;;;;4.53;2.83;;;;;;;;;;5064598;28;20489;-83
2022/04/09 11:25:33;;;;;;;4.43;2.60;;;;;;;;;;5064668;28;20385;-83
2022/04/09 11:28:05;;;;;;;4.57;2.70;;;;;;;;;;5065569;28;20443;-83
2022/04/09 11:30:32;;;;;;;3.87;2.87;;;;;;;;;;5063498;28;20508;-83
2022/04/09 11:32:58;;;;;;;2.90;2.33;;;;;;;;;;5045785;28;20413;-83
2022/04/09 11:35:26;;;;;;;3.50;2.83;;;;;;;;;;5063492;28;20822;-82
2022/04/09 11:37:53;;;;;;;6.40;3.03;;;;;;;;;;5062419;28;20464;-83
2022/04/09 11:40:21;;;;;;;4.30;2.50;;;;;;;;;;5044878;28;20429;-84
2022/04/09 11:42:48;;;;;;;9.20;2.63;;;;;;;;;;5075133;28;20397;-83
2022/04/09 11:45:20;;;;;;;6.93;2.57;;;;;;;;;;5046450;28;20471;-82
2022/04/09 11:47:47;;;;;;;4.20;2.33;;;;;;;;;;5070077;28;20436;-83
2022/04/09 11:50:13;;;;;;;2.70;2.17;;;;;;;;;;5043442;28;20438;-81
2022/04/09 11:52:40;;;;;;;6.33;2.60;;;;;;;;;;5061419;28;20512;-83
2022/04/09 11:55:09;;;;;;;3.45;2.08;;;;;;;;;;5062256;28;20423;-83
2022/04/09 11:57:39;;;;;;;4.60;2.40;;;;;;;;;;5063056;28;20599;-82
2022/04/09 12:00:06;;;;;;;3.40;2.40;;;;;;;;;;5061348;28;20448;-83
2022/04/09 12:02:34;;;;;;;3.90;2.13;;;;;;;;;;5061971;28;20460;-82
2022/04/09 12:05:00;;;;;;;2.57;1.93;;;;;;;;;;5045572;28;20417;-83
2022/04/09 12:07:30;;;;;;;3.97;2.00;;;;;;;;;;5061755;28;20441;-82
2022/04/09 12:09:56;;;;;;;3.97;2.47;;;;;;;;;;5062550;28;20467;-83
2022/04/09 12:12:23;;;;;;;4.40;2.20;;;;;;;;;;5061024;28;20504;-82
2022/04/09 12:15:00;;;;;;;3.00;1.83;;;;;;;;;;5045927;28;20449;-82
2022/04/09 12:17:36;;;;;;;3.30;2.20;;;;;;;;;;5061973;28;20499;-82
2022/04/09 12:20:20;;;;;;;3.10;1.93;;;;;;;;;;5045447;28;20951;-82
2022/04/09 12:22:56;;;;;;;3.27;2.03;;;;;;;;;;5052465;28;20456;-84
2022/04/09 12:25:36;;;;;;;5.00;3.60;;;;;;;;;;5042998;28;20449;-81
2022/04/09 12:28:03;;;;;;;3.83;1.73;;;;;;;;;;5054257;28;20505;-82
2022/04/09 12:30:45;;;;;;;3.20;1.87;;;;;;;;;;5064738;28;20425;-82
2022/04/09 12:33:12;;;;;;;3.40;1.70;;;;;;;;;;5063823;28;20390;-82
2022/04/09 12:35:38;;;;;;;2.10;1.60;;;;;;;;;;5063549;28;20405;-81
2022/04/09 12:38:05;;;;;;;2.97;1.60;;;;;;;;;;5055156;28;20961;-82
2022/04/09 12:40:32;;;;;;;8.60;1.93;;;;;;;;;;5061371;28;20449;-82
2022/04/09 12:42:59;;;;;;;3.57;1.83;;;;;;;;;;5062042;28;20401;-82
2022/04/09 12:45:27;;;;;;;4.73;2.20;;;;;;;;;;5064605;28;20436;-82
2022/04/09 12:47:53;;;;;;;5.87;1.70;;;;;;;;;;5062793;28;20440;-83
2022/04/09 12:50:24;;;;;;;2.27;1.60;;;;;;;;;;5061771;28;20951;-81
2022/04/09 12:52:51;;;;;;;2.97;1.63;;;;;;;;;;5042393;28;20503;-82
2022/04/09 12:55:18;;;;;;;3.90;2.03;;;;;;;;;;5060023;28;20169;-82
2022/04/09 12:57:44;;;;;;;4.77;2.33;;;;;;;;;;5059946;28;20436;-82
2022/04/09 13:00:10;;;;;;;6.13;1.80;;;;;;;;;;5040992;28;20429;-83
2022/04/09 13:02:36;;;;;;;3.10;1.73;;;;;;;;;;5059116;28;20753;-83
2022/04/09 13:05:03;;;;;;;3.20;1.70;;;;;;;;;;5041625;28;20410;-83
2022/04/09 13:07:29;;;;;;;4.20;1.87;;;;;;;;;;5059674;28;20520;-82
2022/04/09 13:09:55;;;;;;;3.57;1.83;;;;;;;;;;5045030;28;20397;-85
2022/04/09 13:12:21;;;;;;;8.20;2.40;;;;;;;;;;5061546;28;20422;-83
2022/04/09 13:14:47;;;;;;;2.20;1.67;;;;;;;;;;5060794;28;20445;-84
2022/04/09 13:17:13;;;;;;;3.63;1.70;;;;;;;;;;5059951;28;20410;-83
2022/04/09 13:19:39;;;;;;;2.90;1.90;;;;;;;;;;5060527;28;20409;-82
2022/04/09 13:22:05;;;;;;;5.20;1.93;;;;;;;;;;5042530;28;20865;-85
2022/04/09 13:24:32;;;;;;;4.53;1.60;;;;;;;;;;5060652;28;20390;-83
2022/04/09 13:26:58;;;;;;;4.00;2.10;;;;;;;;;;5059037;28;20405;-83
2022/04/09 13:29:24;;;;;;;3.50;1.90;;;;;;;;;;5043019;28;20417;-83
2022/04/09 13:31:50;;;;;;;3.50;2.43;;;;;;;;;;5060220;28;20474;-83
2022/04/09 13:34:17;;;;;;;3.40;1.70;;;;;;;;;;5042351;28;20456;-83
2022/04/09 13:36:43;;;;;;;7.20;1.70;;;;;;;;;;5042478;28;20420;-83
2022/04/09 13:39:11;;;;;;;3.40;1.43;;;;;;;;;;5060250;28;20527;-84
2022/04/09 13:41:38;;;;;;;3.93;2.00;;;;;;;;;;5060884;28;20453;-84
2022/04/09 13:44:04;;;;;;;3.37;1.57;;;;;;;;;;5060660;28;20437;-83
2022/04/09 13:46:30;;;;;;;4.07;1.63;;;;;;;;;;5042417;28;20727;-85
2022/04/09 13:48:56;;;;;;;5.53;1.83;;;;;;;;;;5060228;28;20945;-84
2022/04/09 13:51:22;;;;;;;5.83;2.00;;;;;;;;;;5059794;28;20444;-84
2022/04/09 13:53:49;;;;;;;2.03;1.27;;;;;;;;;;5059476;28;20428;-83
2022/04/09 13:56:15;;;;;;;3.80;2.07;;;;;;;;;;5046949;28;20916;-84
2022/04/09 13:58:41;;;;;;;2.77;1.70;;;;;;;;;;5058288;28;20437;-84
2022/04/09 14:01:09;;;;;;;3.10;1.37;;;;;;;;;;5059844;28;20464;-84
2022/04/09 14:03:35;;;;;;;3.20;1.50;;;;;;;;;;5067743;28;20471;-84
2022/04/09 14:06:01;;;;;;;4.13;1.77;;;;;;;;;;5060150;28;20426;-83
2022/04/09 14:08:27;;;;;;;5.73;1.70;;;;;;;;;;5042283;28;20483;-84
2022/04/09 14:10:54;;;;;;;3.23;1.90;;;;;;;;;;5059432;28;20417;-83
2022/04/09 14:13:20;;;;;;;3.50;3.00;;;;;;;;;;5059813;28;20413;-84
2022/04/09 14:15:46;;;;;;;4.67;1.90;;;;;;;;;;5059370;28;20445;-84
2022/04/09 14:18:12;;;;;;;5.37;3.90;;;;;;;;;;5059462;28;20899;-83
2022/04/09 14:20:38;;;;;;;4.00;2.47;;;;;;;;;;5062098;28;20456;-83
2022/04/09 14:23:05;;;;;;;4.00;2.30;;;;;;;;;;5056262;28;20397;-82
2022/04/09 14:25:31;;;;;;;4.70;2.27;;;;;;;;;;5058874;28;20801;-84
2022/04/09 14:27:57;;;;;;;8.23;1.73;;;;;;;;;;5059466;28;20503;-84
2022/04/09 14:30:24;;;;;;;3.70;2.47;;;;;;;;;;5059898;28;20401;-84
2022/04/09 14:32:50;;;;;;;4.50;1.50;;;;;;;;;;5059134;28;20409;-83
2022/04/09 14:35:17;;;;;;;2.20;1.33;;;;;;;;;;5060395;28;20422;-84
2022/04/09 14:37:47;;;;;;;5.80;1.90;;;;;;;;;;5060205;28;20503;-84
2022/04/09 14:40:14;;;;;;;3.93;1.70;;;;;;;;;;5063942;28;20402;-83
2022/04/09 14:42:40;;;;;;;4.67;1.63;;;;;;;;;;5063670;28;20410;-84